sensor_id;sensor_type;location;lat;lon;timestamp;pressure;altitude;pressure_sealevel;temperature;humidity
66479;BME280;53294;47.912;13.526;2023-04-10T00:00:30;96924.28;;;7.21;68.25
66479;BME280;53294;47.912;13.526;2023-04-10T00:02:58;96920.38;;;7.34;67.59
66479;BME280;53294;47.912;13.526;2023-04-10T00:05:27;96923.44;;;7.53;66.73
66479;BME280;53294;47.912;13.526;2023-04-10T00:07:53;96917.06;;;7.59;66.58
66479;BME280;53294;47.912;13.526;2023-04-10T00:10:20;96917.81;;;7.54;66.84
66479;BME280;53294;47.912;13.526;2023-04-10T00:12:47;96924.16;;;7.06;68.84
66479;BME280;53294;47.912;13.526;2023-04-10T00:15:14;96921.72;;;6.72;70.47
66479;BME280;53294;47.912;13.526;2023-04-10T00:17:41;96924.09;;;7.00;68.92
66479;BME280;53294;47.912;13.526;2023-04-10T00:20:08;96914.63;;;7.15;68.37
66479;BME280;53294;47.912;13.526;2023-04-10T00:22:34;96910.97;;;7.31;67.48
66479;BME280;53294;47.912;13.526;2023-04-10T00:25:01;96913.25;;;7.50;66.71
66479;BME280;53294;47.912;13.526;2023-04-10T00:27:28;96908.84;;;7.71;65.94
66479;BME280;53294;47.912;13.526;2023-04-10T00:29:55;96908.59;;;7.78;65.67
66479;BME280;53294;47.912;13.526;2023-04-10T00:32:21;96914.47;;;7.75;65.96
66479;BME280;53294;47.912;13.526;2023-04-10T00:34:49;96901.13;;;7.80;65.68
66479;BME280;53294;47.912;13.526;2023-04-10T00:37:15;96904.91;;;7.89;65.59
66479;BME280;53294;47.912;13.526;2023-04-10T00:39:44;96902.56;;;7.98;65.37
66479;BME280;53294;47.912;13.526;2023-04-10T00:42:10;96902.06;;;8.06;65.09
66479;BME280;53294;47.912;13.526;2023-04-10T00:44:37;96896.97;;;8.04;65.32
66479;BME280;53294;47.912;13.526;2023-04-10T00:47:04;96898.34;;;8.12;64.99
66479;BME280;53294;47.912;13.526;2023-04-10T00:49:32;96900.22;;;8.17;64.90
66479;BME280;53294;47.912;13.526;2023-04-10T00:51:59;96898.09;;;8.19;64.90
66479;BME280;53294;47.912;13.526;2023-04-10T00:54:26;96890.09;;;8.24;64.76
66479;BME280;53294;47.912;13.526;2023-04-10T00:56:54;96893.50;;;8.09;65.12
66479;BME280;53294;47.912;13.526;2023-04-10T00:59:22;96896.19;;;8.09;65.12
66479;BME280;53294;47.912;13.526;2023-04-10T01:01:49;96886.88;;;8.22;64.64
66479;BME280;53294;47.912;13.526;2023-04-10T01:04:16;96892.50;;;8.25;64.60
66479;BME280;53294;47.912;13.526;2023-04-10T01:09:58;96882.63;;;8.36;64.37
66479;BME280;53294;47.912;13.526;2023-04-10T01:15:19;96881.81;;;8.36;64.25
66479;BME280;53294;47.912;13.526;2023-04-10T01:17:49;96885.38;;;8.57;63.81
66479;BME280;53294;47.912;13.526;2023-04-10T01:20:22;96873.25;;;8.34;64.12
66479;BME280;53294;47.912;13.526;2023-04-10T01:25:58;96870.28;;;8.25;64.37
66479;BME280;53294;47.912;13.526;2023-04-10T01:31:16;96875.88;;;8.13;64.61
66479;BME280;53294;47.912;13.526;2023-04-10T01:33:48;96867.03;;;8.13;64.51
66479;BME280;53294;47.912;13.526;2023-04-10T01:36:22;96864.91;;;8.15;64.29
66479;BME280;53294;47.912;13.526;2023-04-10T01:38:50;96875.91;;;7.60;65.51
66479;BME280;53294;47.912;13.526;2023-04-10T01:41:19;96881.31;;;6.95;68.98
66479;BME280;53294;47.912;13.526;2023-04-10T01:43:49;96874.47;;;6.77;69.34
66479;BME280;53294;47.912;13.526;2023-04-10T01:46:20;96875.72;;;7.34;66.74
66479;BME280;53294;47.912;13.526;2023-04-10T01:48:49;96876.31;;;7.42;66.03
66479;BME280;53294;47.912;13.526;2023-04-10T01:51:16;96880.41;;;7.54;65.47
66479;BME280;53294;47.912;13.526;2023-04-10T01:53:43;96875.91;;;7.60;65.11
66479;BME280;53294;47.912;13.526;2023-04-10T01:56:12;96875.84;;;7.55;65.18
66479;BME280;53294;47.912;13.526;2023-04-10T01:58:39;96879.06;;;7.52;65.17
66479;BME280;53294;47.912;13.526;2023-04-10T02:01:06;96873.22;;;7.60;64.79
66479;BME280;53294;47.912;13.526;2023-04-10T02:03:39;96865.34;;;7.38;65.49
66479;BME280;53294;47.912;13.526;2023-04-10T02:09:09;96866.41;;;7.37;65.35
66479;BME280;53294;47.912;13.526;2023-04-10T02:11:50;96864.63;;;7.58;64.59
66479;BME280;53294;47.912;13.526;2023-04-10T02:14:20;96873.25;;;7.65;64.33
66479;BME280;53294;47.912;13.526;2023-04-10T02:16:51;96870.25;;;7.57;63.92
66479;BME280;53294;47.912;13.526;2023-04-10T02:19:19;96861.69;;;7.54;63.66
66479;BME280;53294;47.912;13.526;2023-04-10T02:21:49;96859.28;;;7.53;62.96
66479;BME280;53294;47.912;13.526;2023-04-10T02:24:17;96860.31;;;7.47;63.33
66479;BME280;53294;47.912;13.526;2023-04-10T02:26:46;96865.09;;;7.40;63.35
66479;BME280;53294;47.912;13.526;2023-04-10T02:29:13;96862.94;;;7.42;62.96
66479;BME280;53294;47.912;13.526;2023-04-10T02:31:40;96865.53;;;7.26;63.28
66479;BME280;53294;47.912;13.526;2023-04-10T02:34:07;96871.19;;;6.97;64.22
66479;BME280;53294;47.912;13.526;2023-04-10T02:36:35;96871.75;;;6.99;63.76
66479;BME280;53294;47.912;13.526;2023-04-10T02:39:02;96864.31;;;7.07;63.39
66479;BME280;53294;47.912;13.526;2023-04-10T02:41:29;96865.38;;;7.06;63.35
66479;BME280;53294;47.912;13.526;2023-04-10T02:43:56;96874.34;;;6.94;63.39
66479;BME280;53294;47.912;13.526;2023-04-10T02:46:22;96862.09;;;6.93;63.30
66479;BME280;53294;47.912;13.526;2023-04-10T02:48:51;96862.28;;;6.87;63.00
66479;BME280;53294;47.912;13.526;2023-04-10T02:51:17;96867.63;;;6.87;63.00
66479;BME280;53294;47.912;13.526;2023-04-10T02:53:44;96862.84;;;6.89;62.59
66479;BME280;53294;47.912;13.526;2023-04-10T02:56:11;96857.75;;;6.87;62.51
66479;BME280;53294;47.912;13.526;2023-04-10T02:58:38;96861.06;;;6.67;63.05
66479;BME280;53294;47.912;13.526;2023-04-10T03:01:05;96857.59;;;6.67;63.09
66479;BME280;53294;47.912;13.526;2023-04-10T03:03:35;96854.31;;;6.59;62.73
66479;BME280;53294;47.912;13.526;2023-04-10T03:06:02;96847.31;;;6.53;62.91
66479;BME280;53294;47.912;13.526;2023-04-10T03:08:30;96850.94;;;6.42;63.11
66479;BME280;53294;47.912;13.526;2023-04-10T03:10:57;96849.13;;;6.47;62.76
66479;BME280;53294;47.912;13.526;2023-04-10T03:13:24;96844.88;;;6.24;63.06
66479;BME280;53294;47.912;13.526;2023-04-10T03:15:50;96847.78;;;6.23;62.90
66479;BME280;53294;47.912;13.526;2023-04-10T03:18:17;96849.06;;;6.15;63.03
66479;BME280;53294;47.912;13.526;2023-04-10T03:20:44;96847.13;;;5.88;63.72
66479;BME280;53294;47.912;13.526;2023-04-10T03:23:11;96847.38;;;5.65;64.71
66479;BME280;53294;47.912;13.526;2023-04-10T03:25:37;96853.44;;;5.21;64.50
66479;BME280;53294;47.912;13.526;2023-04-10T03:28:04;96851.09;;;5.64;63.50
66479;BME280;53294;47.912;13.526;2023-04-10T03:30:31;96850.31;;;5.46;64.00
66479;BME280;53294;47.912;13.526;2023-04-10T03:32:57;96846.38;;;5.10;65.87
66479;BME280;53294;47.912;13.526;2023-04-10T03:35:24;96845.28;;;5.28;64.92
66479;BME280;53294;47.912;13.526;2023-04-10T03:37:51;96841.53;;;5.46;64.04
66479;BME280;53294;47.912;13.526;2023-04-10T03:40:17;96846.75;;;5.57;63.36
66479;BME280;53294;47.912;13.526;2023-04-10T03:42:44;96849.50;;;5.63;63.24
66479;BME280;53294;47.912;13.526;2023-04-10T03:45:11;96851.28;;;5.57;63.09
66479;BME280;53294;47.912;13.526;2023-04-10T03:47:38;96852.16;;;5.63;62.94
66479;BME280;53294;47.912;13.526;2023-04-10T03:50:05;96853.25;;;5.67;62.37
66479;BME280;53294;47.912;13.526;2023-04-10T03:52:32;96859.03;;;5.58;62.41
66479;BME280;53294;47.912;13.526;2023-04-10T03:54:58;96855.00;;;5.39;63.44
66479;BME280;53294;47.912;13.526;2023-04-10T03:57:25;96870.50;;;5.42;63.30
66479;BME280;53294;47.912;13.526;2023-04-10T03:59:51;96864.69;;;5.45;62.95
66479;BME280;53294;47.912;13.526;2023-04-10T04:02:18;96863.59;;;5.41;63.43
66479;BME280;53294;47.912;13.526;2023-04-10T04:04:46;96862.75;;;5.40;63.57
66479;BME280;53294;47.912;13.526;2023-04-10T04:07:13;96871.66;;;5.29;64.06
66479;BME280;53294;47.912;13.526;2023-04-10T04:09:40;96859.72;;;5.32;63.62
66479;BME280;53294;47.912;13.526;2023-04-10T04:12:06;96864.06;;;5.38;63.57
66479;BME280;53294;47.912;13.526;2023-04-10T04:14:33;96864.88;;;5.38;63.65
66479;BME280;53294;47.912;13.526;2023-04-10T04:17:00;96867.72;;;5.32;63.66
66479;BME280;53294;47.912;13.526;2023-04-10T04:19:26;96870.63;;;5.30;64.10
66479;BME280;53294;47.912;13.526;2023-04-10T04:21:53;96860.94;;;5.41;63.66
66479;BME280;53294;47.912;13.526;2023-04-10T04:24:20;96874.09;;;5.31;64.04
66479;BME280;53294;47.912;13.526;2023-04-10T04:26:47;96872.09;;;5.21;64.70
66479;BME280;53294;47.912;13.526;2023-04-10T04:29:14;96874.75;;;5.21;64.53
66479;BME280;53294;47.912;13.526;2023-04-10T04:31:40;96865.47;;;5.24;64.88
66479;BME280;53294;47.912;13.526;2023-04-10T04:34:07;96875.72;;;5.32;64.46
66479;BME280;53294;47.912;13.526;2023-04-10T04:36:34;96879.19;;;5.32;64.41
66479;BME280;53294;47.912;13.526;2023-04-10T04:39:00;96871.19;;;5.32;64.84
66479;BME280;53294;47.912;13.526;2023-04-10T04:41:27;96865.00;;;5.27;65.29
66479;BME280;53294;47.912;13.526;2023-04-10T04:43:59;96881.16;;;5.42;64.96
66479;BME280;53294;47.912;13.526;2023-04-10T04:46:26;96874.88;;;5.48;64.76
66479;BME280;53294;47.912;13.526;2023-04-10T04:48:53;96869.19;;;5.62;63.94
66479;BME280;53294;47.912;13.526;2023-04-10T04:51:20;96875.41;;;5.67;64.06
66479;BME280;53294;47.912;13.526;2023-04-10T04:53:47;96879.41;;;5.70;64.09
66479;BME280;53294;47.912;13.526;2023-04-10T04:56:13;96879.50;;;5.75;64.14
66479;BME280;53294;47.912;13.526;2023-04-10T04:58:40;96885.38;;;5.77;63.97
66479;BME280;53294;47.912;13.526;2023-04-10T05:01:08;96884.41;;;5.83;63.97
66479;BME280;53294;47.912;13.526;2023-04-10T05:03:35;96890.84;;;5.87;63.77
66479;BME280;53294;47.912;13.526;2023-04-10T05:06:02;96896.25;;;5.92;63.97
66479;BME280;53294;47.912;13.526;2023-04-10T05:08:29;96891.28;;;5.79;64.73
66479;BME280;53294;47.912;13.526;2023-04-10T05:10:56;96895.53;;;5.97;64.13
66479;BME280;53294;47.912;13.526;2023-04-10T05:13:22;96901.41;;;5.99;64.13
66479;BME280;53294;47.912;13.526;2023-04-10T05:15:49;96908.25;;;5.73;65.88
66479;BME280;53294;47.912;13.526;2023-04-10T05:18:16;96901.28;;;5.89;65.12
66479;BME280;53294;47.912;13.526;2023-04-10T05:20:45;96903.84;;;6.01;64.84
66479;BME280;53294;47.912;13.526;2023-04-10T05:23:12;96908.72;;;6.09;64.61
66479;BME280;53294;47.912;13.526;2023-04-10T05:25:39;96908.97;;;6.07;64.79
66479;BME280;53294;47.912;13.526;2023-04-10T05:28:06;96909.72;;;6.03;65.57
66479;BME280;53294;47.912;13.526;2023-04-10T05:30:33;96911.75;;;5.96;65.53
66479;BME280;53294;47.912;13.526;2023-04-10T05:33:00;96914.88;;;6.09;65.44
66479;BME280;53294;47.912;13.526;2023-04-10T05:35:27;96908.06;;;5.97;66.17
66479;BME280;53294;47.912;13.526;2023-04-10T05:37:53;96921.78;;;5.88;66.87
66479;BME280;53294;47.912;13.526;2023-04-10T05:40:20;96920.03;;;5.77;67.03
66479;BME280;53294;47.912;13.526;2023-04-10T05:42:47;96923.69;;;5.71;67.47
66479;BME280;53294;47.912;13.526;2023-04-10T05:45:13;96913.88;;;5.93;66.69
66479;BME280;53294;47.912;13.526;2023-04-10T05:47:40;96914.56;;;6.06;65.97
66479;BME280;53294;47.912;13.526;2023-04-10T05:50:07;96925.88;;;5.74;67.66
66479;BME280;53294;47.912;13.526;2023-04-10T05:52:34;96925.38;;;5.77;67.56
66479;BME280;53294;47.912;13.526;2023-04-10T05:55:02;96923.59;;;6.00;66.94
66479;BME280;53294;47.912;13.526;2023-04-10T05:57:28;96929.75;;;5.66;68.62
66479;BME280;53294;47.912;13.526;2023-04-10T05:59:56;96929.63;;;5.39;69.54
66479;BME280;53294;47.912;13.526;2023-04-10T06:02:22;96931.63;;;5.66;68.40
66479;BME280;53294;47.912;13.526;2023-04-10T06:04:50;96928.75;;;5.89;67.26
66479;BME280;53294;47.912;13.526;2023-04-10T06:07:17;96936.72;;;5.67;69.34
66479;BME280;53294;47.912;13.526;2023-04-10T06:09:43;96931.41;;;5.50;69.93
66479;BME280;53294;47.912;13.526;2023-04-10T06:12:10;96935.59;;;5.46;70.17
66479;BME280;53294;47.912;13.526;2023-04-10T06:14:37;96932.66;;;5.65;69.65
66479;BME280;53294;47.912;13.526;2023-04-10T06:17:03;96942.91;;;5.73;69.54
66479;BME280;53294;47.912;13.526;2023-04-10T06:19:30;96944.59;;;5.79;69.53
66479;BME280;53294;47.912;13.526;2023-04-10T06:21:57;96939.59;;;6.00;68.85
66479;BME280;53294;47.912;13.526;2023-04-10T06:24:23;96946.00;;;6.04;69.09
66479;BME280;53294;47.912;13.526;2023-04-10T06:26:50;96947.59;;;6.22;68.39
66479;BME280;53294;47.912;13.526;2023-04-10T06:29:17;96939.34;;;6.23;68.30
66479;BME280;53294;47.912;13.526;2023-04-10T06:31:44;96947.88;;;6.25;68.87
66479;BME280;53294;47.912;13.526;2023-04-10T06:34:11;96946.16;;;6.14;68.38
66479;BME280;53294;47.912;13.526;2023-04-10T06:36:37;96945.53;;;5.90;69.95
66479;BME280;53294;47.912;13.526;2023-04-10T06:39:04;96941.66;;;5.98;69.80
66479;BME280;53294;47.912;13.526;2023-04-10T06:41:31;96943.53;;;6.19;69.08
66479;BME280;53294;47.912;13.526;2023-04-10T06:43:58;96941.88;;;6.13;69.03
66479;BME280;53294;47.912;13.526;2023-04-10T06:46:28;96950.91;;;5.73;70.57
66479;BME280;53294;47.912;13.526;2023-04-10T06:48:55;96943.16;;;5.54;72.01
66479;BME280;53294;47.912;13.526;2023-04-10T06:51:22;96946.75;;;5.26;73.34
66479;BME280;53294;47.912;13.526;2023-04-10T06:53:49;96942.25;;;5.27;73.27
66479;BME280;53294;47.912;13.526;2023-04-10T06:56:15;96936.72;;;5.67;72.14
66479;BME280;53294;47.912;13.526;2023-04-10T06:58:42;96950.50;;;5.81;71.56
66479;BME280;53294;47.912;13.526;2023-04-10T07:01:09;96953.97;;;5.99;71.19
66479;BME280;53294;47.912;13.526;2023-04-10T07:03:35;96952.53;;;5.74;72.04
66479;BME280;53294;47.912;13.526;2023-04-10T07:06:02;96942.91;;;6.12;70.91
66479;BME280;53294;47.912;13.526;2023-04-10T07:08:29;96941.56;;;6.09;71.13
66479;BME280;53294;47.912;13.526;2023-04-10T07:10:56;96932.00;;;6.36;70.59
66479;BME280;53294;47.912;13.526;2023-04-10T07:13:24;96939.44;;;6.34;70.85
66479;BME280;53294;47.912;13.526;2023-04-10T07:15:50;96932.84;;;6.63;70.26
66479;BME280;53294;47.912;13.526;2023-04-10T07:18:17;96934.34;;;6.54;70.69
66479;BME280;53294;47.912;13.526;2023-04-10T07:20:44;96931.84;;;6.70;70.11
66479;BME280;53294;47.912;13.526;2023-04-10T07:23:11;96935.97;;;6.82;70.06
66479;BME280;53294;47.912;13.526;2023-04-10T07:25:37;96936.03;;;6.93;69.66
66479;BME280;53294;47.912;13.526;2023-04-10T07:28:05;96936.28;;;6.91;69.55
66479;BME280;53294;47.912;13.526;2023-04-10T07:30:32;96934.22;;;6.98;70.06
66479;BME280;53294;47.912;13.526;2023-04-10T07:32:59;96936.94;;;7.04;70.05
66479;BME280;53294;47.912;13.526;2023-04-10T07:35:26;96937.94;;;6.97;70.15
66479;BME280;53294;47.912;13.526;2023-04-10T07:37:53;96938.28;;;7.01;69.95
66479;BME280;53294;47.912;13.526;2023-04-10T07:40:20;96935.09;;;7.36;68.69
66479;BME280;53294;47.912;13.526;2023-04-10T07:42:46;96926.59;;;7.45;69.16
66479;BME280;53294;47.912;13.526;2023-04-10T07:45:13;96930.44;;;7.64;69.27
66479;BME280;53294;47.912;13.526;2023-04-10T07:47:40;96917.78;;;7.92;69.34
66479;BME280;53294;47.912;13.526;2023-04-10T07:50:07;96923.28;;;8.28;68.94
66479;BME280;53294;47.912;13.526;2023-04-10T07:52:34;96915.81;;;8.35;70.12
66479;BME280;53294;47.912;13.526;2023-04-10T07:55:02;96908.34;;;8.42;68.18
66479;BME280;53294;47.912;13.526;2023-04-10T07:57:29;96903.09;;;8.73;69.45
66479;BME280;53294;47.912;13.526;2023-04-10T07:59:57;96901.25;;;9.20;67.32
66479;BME280;53294;47.912;13.526;2023-04-10T08:02:24;96895.63;;;9.37;67.38
66479;BME280;53294;47.912;13.526;2023-04-10T08:04:51;96892.88;;;9.63;66.00
66479;BME280;53294;47.912;13.526;2023-04-10T08:07:19;96902.81;;;9.73;65.40
66479;BME280;53294;47.912;13.526;2023-04-10T08:09:47;96900.41;;;9.71;64.66
66479;BME280;53294;47.912;13.526;2023-04-10T08:12:13;96900.88;;;9.83;64.75
66479;BME280;53294;47.912;13.526;2023-04-10T08:14:40;96895.31;;;9.54;64.41
66479;BME280;53294;47.912;13.526;2023-04-10T08:17:07;96908.50;;;9.25;65.10
66479;BME280;53294;47.912;13.526;2023-04-10T08:19:40;96901.19;;;9.61;67.07
66479;BME280;53294;47.912;13.526;2023-04-10T08:22:07;96899.84;;;9.74;65.75
66479;BME280;53294;47.912;13.526;2023-04-10T08:24:34;96890.63;;;10.06;64.67
66479;BME280;53294;47.912;13.526;2023-04-10T08:27:01;96890.47;;;10.47;63.57
66479;BME280;53294;47.912;13.526;2023-04-10T08:29:28;96887.56;;;10.78;63.25
66479;BME280;53294;47.912;13.526;2023-04-10T08:31:54;96886.00;;;10.72;63.90
66479;BME280;53294;47.912;13.526;2023-04-10T08:34:21;96884.28;;;10.47;63.13
66479;BME280;53294;47.912;13.526;2023-04-10T08:36:49;96885.94;;;9.51;64.82
66479;BME280;53294;47.912;13.526;2023-04-10T08:39:16;96886.50;;;8.97;65.25
66479;BME280;53294;47.912;13.526;2023-04-10T08:41:43;96891.31;;;8.90;65.23
66479;BME280;53294;47.912;13.526;2023-04-10T08:44:10;96877.91;;;9.46;65.85
66479;BME280;53294;47.912;13.526;2023-04-10T08:46:41;96878.81;;;10.02;63.51
66479;BME280;53294;47.912;13.526;2023-04-10T08:49:12;96873.84;;;10.40;62.65
66479;BME280;53294;47.912;13.526;2023-04-10T08:51:45;96868.66;;;10.93;63.27
66479;BME280;53294;47.912;13.526;2023-04-10T08:54:20;96868.31;;;11.05;61.03
66479;BME280;53294;47.912;13.526;2023-04-10T08:56:53;96863.47;;;11.37;60.73
66479;BME280;53294;47.912;13.526;2023-04-10T08:59:20;96864.38;;;11.51;60.65
66479;BME280;53294;47.912;13.526;2023-04-10T09:01:47;96859.00;;;11.51;61.40
66479;BME280;53294;47.912;13.526;2023-04-10T09:04:14;96863.78;;;11.01;62.59
66479;BME280;53294;47.912;13.526;2023-04-10T09:06:42;96862.41;;;11.62;61.68
66479;BME280;53294;47.912;13.526;2023-04-10T09:09:09;96857.72;;;11.73;61.84
66479;BME280;53294;47.912;13.526;2023-04-10T09:14:31;96851.13;;;12.70;58.98
66479;BME280;53294;47.912;13.526;2023-04-10T09:17:28;96844.81;;;12.94;58.62
66479;BME280;53294;47.912;13.526;2023-04-10T09:19:54;96840.78;;;13.43;57.58
66479;BME280;53294;47.912;13.526;2023-04-10T09:22:29;96837.28;;;13.43;57.28
66479;BME280;53294;47.912;13.526;2023-04-10T09:24:58;96836.72;;;13.60;58.36
66479;BME280;53294;47.912;13.526;2023-04-10T09:27:33;96834.50;;;13.62;55.47
66479;BME280;53294;47.912;13.526;2023-04-10T09:30:01;96835.00;;;13.36;56.81
66479;BME280;53294;47.912;13.526;2023-04-10T09:32:42;96828.41;;;13.70;57.30
66479;BME280;53294;47.912;13.526;2023-04-10T09:35:13;96828.09;;;13.72;56.03
66479;BME280;53294;47.912;13.526;2023-04-10T09:37:43;96823.94;;;12.67;57.43
66479;BME280;53294;47.912;13.526;2023-04-10T09:40:21;96825.09;;;13.13;56.87
66479;BME280;53294;47.912;13.526;2023-04-10T09:42:50;96816.16;;;13.31;55.56
66479;BME280;53294;47.912;13.526;2023-04-10T09:45:17;96822.34;;;13.78;51.71
66479;BME280;53294;47.912;13.526;2023-04-10T09:48:00;96806.47;;;14.27;52.74
66479;BME280;53294;47.912;13.526;2023-04-10T09:50:35;96805.16;;;14.75;53.09
66479;BME280;53294;47.912;13.526;2023-04-10T09:53:13;96809.56;;;14.71;52.68
66479;BME280;53294;47.912;13.526;2023-04-10T09:55:41;96811.91;;;14.64;52.60
66479;BME280;53294;47.912;13.526;2023-04-10T09:58:08;96803.16;;;14.89;51.23
66479;BME280;53294;47.912;13.526;2023-04-10T10:00:45;96801.31;;;14.99;48.81
66479;BME280;53294;47.912;13.526;2023-04-10T10:03:15;96803.16;;;14.89;51.85
66479;BME280;53294;47.912;13.526;2023-04-10T10:05:44;96788.84;;;14.66;49.99
66479;BME280;53294;47.912;13.526;2023-04-10T10:08:12;96791.31;;;14.40;48.67
66479;BME280;53294;47.912;13.526;2023-04-10T10:10:44;96782.84;;;14.33;49.97
66479;BME280;53294;47.912;13.526;2023-04-10T10:13:59;96781.69;;;14.11;49.64
66479;BME280;53294;47.912;13.526;2023-04-10T10:21:22;96778.59;;;14.04;52.62
66479;BME280;53294;47.912;13.526;2023-04-10T10:23:50;96782.19;;;14.13;51.63
66479;BME280;53294;47.912;13.526;2023-04-10T10:26:20;96774.13;;;14.36;51.51
66479;BME280;53294;47.912;13.526;2023-04-10T10:28:50;96776.19;;;14.76;50.86
66479;BME280;53294;47.912;13.526;2023-04-10T10:31:20;96771.41;;;14.95;52.36
66479;BME280;53294;47.912;13.526;2023-04-10T10:33:50;96763.84;;;14.61;50.01
66479;BME280;53294;47.912;13.526;2023-04-10T10:36:18;96766.63;;;14.55;50.77
66479;BME280;53294;47.912;13.526;2023-04-10T10:48:06;96753.22;;;15.18;50.00
66479;BME280;53294;47.912;13.526;2023-04-10T10:50:53;96754.31;;;15.17;48.44
66479;BME280;53294;47.912;13.526;2023-04-10T10:58:53;96732.19;;;16.13;46.86
66479;BME280;53294;47.912;13.526;2023-04-10T11:01:23;96727.72;;;16.43;43.86
66479;BME280;53294;47.912;13.526;2023-04-10T11:03:49;96726.44;;;16.58;45.84
66479;BME280;53294;47.912;13.526;2023-04-10T11:06:18;96725.66;;;16.49;45.04
66479;BME280;53294;47.912;13.526;2023-04-10T11:08:49;96718.59;;;16.83;44.64
66479;BME280;53294;47.912;13.526;2023-04-10T11:11:21;96708.53;;;16.92;43.33
66479;BME280;53294;47.912;13.526;2023-04-10T11:19:00;96696.97;;;17.13;43.12
66479;BME280;53294;47.912;13.526;2023-04-10T11:21:59;96690.72;;;17.21;41.54
66479;BME280;53294;47.912;13.526;2023-04-10T11:24:27;96691.78;;;17.37;42.72
66479;BME280;53294;47.912;13.526;2023-04-10T11:26:54;96688.00;;;17.51;43.62
66479;BME280;53294;47.912;13.526;2023-04-10T11:31:57;96675.09;;;17.77;40.76
66479;BME280;53294;47.912;13.526;2023-04-10T11:34:25;96674.16;;;17.73;42.89
66479;BME280;53294;47.912;13.526;2023-04-10T11:36:56;96670.56;;;17.82;43.48
66479;BME280;53294;47.912;13.526;2023-04-10T11:39:22;96673.91;;;18.08;43.02
66479;BME280;53294;47.912;13.526;2023-04-10T11:41:51;96663.66;;;17.93;40.73
66479;BME280;53294;47.912;13.526;2023-04-10T11:44:19;96656.44;;;17.97;41.75
66479;BME280;53294;47.912;13.526;2023-04-10T11:46:52;96660.00;;;17.89;40.11
66479;BME280;53294;47.912;13.526;2023-04-10T11:49:22;96653.91;;;17.92;41.33
66479;BME280;53294;47.912;13.526;2023-04-10T11:51:50;96647.38;;;17.93;42.42
66479;BME280;53294;47.912;13.526;2023-04-10T11:54:19;96655.59;;;17.75;41.47
66479;BME280;53294;47.912;13.526;2023-04-10T11:59:31;96643.41;;;18.24;41.10
66479;BME280;53294;47.912;13.526;2023-04-10T12:02:10;96642.59;;;18.44;39.16
66479;BME280;53294;47.912;13.526;2023-04-10T12:04:38;96641.22;;;18.38;40.43
66479;BME280;53294;47.912;13.526;2023-04-10T12:07:06;96645.28;;;18.32;41.18
66479;BME280;53294;47.912;13.526;2023-04-10T12:09:33;96642.88;;;18.30;39.76
66479;BME280;53294;47.912;13.526;2023-04-10T12:12:01;96638.13;;;18.06;42.18
66479;BME280;53294;47.912;13.526;2023-04-10T12:16:56;96634.09;;;18.12;42.16
66479;BME280;53294;47.912;13.526;2023-04-10T12:19:23;96622.22;;;18.17;40.30
66479;BME280;53294;47.912;13.526;2023-04-10T12:21:50;96627.09;;;18.24;40.42
66479;BME280;53294;47.912;13.526;2023-04-10T12:24:54;96627.97;;;18.16;39.18
66479;BME280;53294;47.912;13.526;2023-04-10T12:27:24;96629.75;;;18.33;40.87
66479;BME280;53294;47.912;13.526;2023-04-10T12:29:56;96633.97;;;18.42;41.24
66479;BME280;53294;47.912;13.526;2023-04-10T12:32:23;96625.63;;;18.47;40.67
66479;BME280;53294;47.912;13.526;2023-04-10T12:34:55;96625.66;;;18.72;38.69
66479;BME280;53294;47.912;13.526;2023-04-10T12:40:13;96625.41;;;18.65;39.60
66479;BME280;53294;47.912;13.526;2023-04-10T12:42:40;96608.19;;;18.61;39.40
66479;BME280;53294;47.912;13.526;2023-04-10T12:45:10;96591.16;;;18.97;39.33
66479;BME280;53294;47.912;13.526;2023-04-10T12:47:47;96583.09;;;19.01;39.14
66479;BME280;53294;47.912;13.526;2023-04-10T12:50:15;96588.28;;;19.06;39.28
66479;BME280;53294;47.912;13.526;2023-04-10T12:52:45;96578.53;;;19.30;39.48
66479;BME280;53294;47.912;13.526;2023-04-10T12:55:26;96574.78;;;19.34;39.61
66479;BME280;53294;47.912;13.526;2023-04-10T12:57:54;96561.72;;;19.40;36.91
66479;BME280;53294;47.912;13.526;2023-04-10T13:00:23;96566.28;;;19.36;37.91
66479;BME280;53294;47.912;13.526;2023-04-10T13:02:50;96557.47;;;19.02;37.49
66479;BME280;53294;47.912;13.526;2023-04-10T13:05:18;96557.88;;;19.29;39.04
66479;BME280;53294;47.912;13.526;2023-04-10T13:07:44;96553.13;;;19.26;40.02
66479;BME280;53294;47.912;13.526;2023-04-10T13:10:11;96532.53;;;19.53;38.08
66479;BME280;53294;47.912;13.526;2023-04-10T13:12:38;96542.91;;;19.35;38.89
66479;BME280;53294;47.912;13.526;2023-04-10T13:15:06;96542.69;;;19.28;37.30
66479;BME280;53294;47.912;13.526;2023-04-10T13:17:33;96533.25;;;19.37;36.75
66479;BME280;53294;47.912;13.526;2023-04-10T13:20:00;96518.97;;;19.69;37.95
66479;BME280;53294;47.912;13.526;2023-04-10T13:22:27;96521.00;;;19.84;37.59
66479;BME280;53294;47.912;13.526;2023-04-10T13:24:54;96514.22;;;19.66;38.71
66479;BME280;53294;47.912;13.526;2023-04-10T13:27:20;96514.09;;;19.62;35.91
66479;BME280;53294;47.912;13.526;2023-04-10T13:29:47;96501.63;;;19.61;36.88
66479;BME280;53294;47.912;13.526;2023-04-10T13:32:14;96503.28;;;19.50;37.40
66479;BME280;53294;47.912;13.526;2023-04-10T13:34:41;96505.66;;;19.51;37.29
66479;BME280;53294;47.912;13.526;2023-04-10T13:37:08;96509.25;;;19.55;36.79
66479;BME280;53294;47.912;13.526;2023-04-10T13:39:37;96512.34;;;19.82;36.95
66479;BME280;53294;47.912;13.526;2023-04-10T13:42:04;96506.69;;;19.75;37.87
66479;BME280;53294;47.912;13.526;2023-04-10T13:44:31;96499.06;;;19.81;38.58
66479;BME280;53294;47.912;13.526;2023-04-10T13:46:58;96498.53;;;20.19;37.69
66479;BME280;53294;47.912;13.526;2023-04-10T13:49:25;96493.00;;;20.32;35.55
66479;BME280;53294;47.912;13.526;2023-04-10T13:51:51;96494.47;;;20.13;36.23
66479;BME280;53294;47.912;13.526;2023-04-10T13:54:18;96483.88;;;19.80;37.10
66479;BME280;53294;47.912;13.526;2023-04-10T13:56:45;96484.47;;;19.61;37.48